Impacts METAR Board
IDs:

KCLT - Charlotte/Douglas In, NC, US

Updated at: 2000 UTC 16 Aug 2018
Potential Impact None Slight Moderate High
Time 16/08Z 16/09Z 16/10Z 16/11Z 16/12Z 16/13Z 16/14Z 16/15Z 16/16Z 16/17Z 16/18Z 16/19Z 16/20Z
Temp74 74 70 72 73 79 83 86 88 90 90 91 91
Dewpt70 70 69 70 71 74 73 72 71 70 71 70 70
Altim30.11 30.12 30.13 30.15 30.16 30.17 30.18 30.19 30.19 30.18 30.17 30.15 30.13
VIS8 8 6 7 7 7 7 8 9 9 9 9 9
CIG-- -- -- -- -- -- -- -- -- -- 250 250 --
CoverCLRFEWCLRFEWSCTSCTFEWFEWSCTSCTBKNBKNFEW
FltCatVFRVFRVFRVFRVFRVFRVFRVFRVFRVFRVFRVFRVFR
WX----BR--------------------
WDir000330020002402402802702100
WSpd0 0 0 3 0 3 5 6 6 6 7 8 5
WGst-- -- -- -- -- -- -- -- -- -- -- -- --
Raw hourly METARs
KCLT 160752Z 00000KT 8SM CLR 23/21 A3011 RMK AO2 SLP187 T02330211
KCLT 160852Z 00000KT 8SM FEW110 23/21 A3012 RMK AO2 SLP189 T02330211 53001
KCLT 160952Z 00000KT 6SM BR CLR 21/21 A3013 RMK AO2 SLP192 T02110206
KCLT 161052Z 33003KT 7SM FEW110 FEW250 22/21 A3015 RMK AO2 SLP198 T02220211
KCLT 161152Z 00000KT 7SM FEW110 SCT250 23/22 A3016 RMK AO2 SLP204 T02280217 10250 20211 53014
KCLT 161252Z 20003KT 7SM FEW090 SCT250 26/23 A3017 RMK AO2 SLP208 T02610233
KCLT 161352Z VRB05KT 7SM FEW095 FEW250 28/23 A3018 RMK AO2 SLP208 T02830228
KCLT 161452Z 24006KT 8SM FEW095 FEW250 30/22 A3019 RMK AO2 SLP212 T03000222 51009
KCLT 161552Z 24006KT 9SM FEW035 FEW100 SCT250 31/22 A3019 RMK AO2 SLP212 T03110217
KCLT 161652Z 28006KT 9SM FEW040 FEW100 SCT250 32/21 A3018 RMK AO2 SLP208 T03220211
KCLT 161752Z 27007KT 220V310 9SM SCT046 SCT110 BKN250 32/22 A3017 RMK AO2 SLP205 T03220217 10328 20228 58006
KCLT 161852Z 21008KT 9SM SCT048 SCT110 BKN250 33/21 A3015 RMK AO2 SLP200 T03280211
KCLT 161952Z VRB05KT 9SM FEW046 FEW250 33/21 A3013 RMK AO2 SLP194 CB DSNT SE T03280211



Page loaded:  20:18 UTC  |   01:18 PM Pacific  |   02:18 PM Mountain  |   03:18 PM Central  |   04:18 PM Eastern

 

ADVISORIES

FORECASTS

FORECASTS

OBSERVATIONS

USER TOOLS

ABOUT US